sensor_id;sensor_type;location;lat;lon;timestamp;pressure;altitude;pressure_sealevel;temperature;humidity
72892;BME280;61032;50.782;6.818;2023-03-01T00:00:48;101788.56;;;2.02;53.90
72892;BME280;61032;50.782;6.818;2023-03-01T00:01:48;101795.03;;;2.01;54.01
72892;BME280;61032;50.782;6.818;2023-03-01T00:02:48;101792.81;;;1.98;54.72
72892;BME280;61032;50.782;6.818;2023-03-01T00:03:49;101783.97;;;2.02;54.44
72892;BME280;61032;50.782;6.818;2023-03-01T00:04:50;101788.34;;;1.92;54.47
72892;BME280;61032;50.782;6.818;2023-03-01T00:05:50;101789.31;;;1.86;54.53
72892;BME280;61032;50.782;6.818;2023-03-01T00:06:50;101787.09;;;1.83;55.51
72892;BME280;61032;50.782;6.818;2023-03-01T00:07:53;101781.09;;;1.81;55.12
72892;BME280;61032;50.782;6.818;2023-03-01T00:08:54;101786.94;;;1.89;55.99
72892;BME280;61032;50.782;6.818;2023-03-01T00:09:54;101789.75;;;1.94;55.72
72892;BME280;61032;50.782;6.818;2023-03-01T00:11:08;101796.03;;;1.83;55.50
72892;BME280;61032;50.782;6.818;2023-03-01T00:12:10;101793.22;;;1.78;56.02
72892;BME280;61032;50.782;6.818;2023-03-01T00:13:11;101794.16;;;1.72;56.16
72892;BME280;61032;50.782;6.818;2023-03-01T00:14:12;101793.59;;;1.70;56.33
72892;BME280;61032;50.782;6.818;2023-03-01T00:15:12;101794.88;;;1.67;55.89
72892;BME280;61032;50.782;6.818;2023-03-01T00:16:19;101795.03;;;1.61;56.21
72892;BME280;61032;50.782;6.818;2023-03-01T00:17:19;101789.38;;;1.51;57.15
72892;BME280;61032;50.782;6.818;2023-03-01T00:18:20;101791.41;;;1.44;57.35
72892;BME280;61032;50.782;6.818;2023-03-01T00:19:20;101791.88;;;1.41;57.14
72892;BME280;61032;50.782;6.818;2023-03-01T00:20:21;101794.69;;;1.46;56.85
72892;BME280;61032;50.782;6.818;2023-03-01T00:21:23;101791.50;;;1.49;57.41
72892;BME280;61032;50.782;6.818;2023-03-01T00:22:26;101799.63;;;1.49;56.65
72892;BME280;61032;50.782;6.818;2023-03-01T00:23:28;101801.28;;;1.50;56.93
72892;BME280;61032;50.782;6.818;2023-03-01T00:24:28;101793.75;;;1.52;57.35
72892;BME280;61032;50.782;6.818;2023-03-01T00:25:29;101789.97;;;1.53;56.67
72892;BME280;61032;50.782;6.818;2023-03-01T00:26:29;101787.16;;;1.48;57.24
72892;BME280;61032;50.782;6.818;2023-03-01T00:27:29;101791.28;;;1.38;57.40
72892;BME280;61032;50.782;6.818;2023-03-01T00:28:31;101796.59;;;1.33;56.82
72892;BME280;61032;50.782;6.818;2023-03-01T00:29:31;101806.72;;;1.26;57.19
72892;BME280;61032;50.782;6.818;2023-03-01T00:30:32;101800.59;;;1.19;58.18
72892;BME280;61032;50.782;6.818;2023-03-01T00:31:33;101798.25;;;1.11;58.61
72892;BME280;61032;50.782;6.818;2023-03-01T00:32:33;101799.44;;;1.15;58.21
72892;BME280;61032;50.782;6.818;2023-03-01T00:33:34;101799.06;;;1.12;57.75
72892;BME280;61032;50.782;6.818;2023-03-01T00:34:35;101799.44;;;1.15;57.96
72892;BME280;61032;50.782;6.818;2023-03-01T00:35:35;101799.91;;;1.12;57.75
72892;BME280;61032;50.782;6.818;2023-03-01T00:36:36;101802.00;;;1.10;58.47
72892;BME280;61032;50.782;6.818;2023-03-01T00:37:37;101801.06;;;1.16;58.15
72892;BME280;61032;50.782;6.818;2023-03-01T00:38:38;101807.69;;;1.20;57.37
72892;BME280;61032;50.782;6.818;2023-03-01T00:39:39;101795.56;;;1.23;57.30
72892;BME280;61032;50.782;6.818;2023-03-01T00:40:39;101802.47;;;1.30;57.54
72892;BME280;61032;50.782;6.818;2023-03-01T00:41:40;101799.88;;;1.35;56.89
72892;BME280;61032;50.782;6.818;2023-03-01T00:42:41;101793.41;;;1.36;56.73
72892;BME280;61032;50.782;6.818;2023-03-01T00:43:42;101791.63;;;1.30;56.96
72892;BME280;61032;50.782;6.818;2023-03-01T00:44:42;101792.69;;;1.29;57.03
72892;BME280;61032;50.782;6.818;2023-03-01T00:45:43;101800.13;;;1.34;57.03
72892;BME280;61032;50.782;6.818;2023-03-01T00:46:43;101794.59;;;1.41;57.28
72892;BME280;61032;50.782;6.818;2023-03-01T00:47:43;101785.63;;;1.40;56.55
72892;BME280;61032;50.782;6.818;2023-03-01T00:48:44;101788.13;;;1.42;56.75
72892;BME280;61032;50.782;6.818;2023-03-01T00:49:45;101790.00;;;1.29;56.50
72892;BME280;61032;50.782;6.818;2023-03-01T00:50:45;101789.91;;;1.24;57.14
72892;BME280;61032;50.782;6.818;2023-03-01T00:51:45;101792.84;;;1.23;56.92
72892;BME280;61032;50.782;6.818;2023-03-01T00:52:46;101786.09;;;1.25;57.38
72892;BME280;61032;50.782;6.818;2023-03-01T00:53:49;101781.03;;;1.29;57.19
72892;BME280;61032;50.782;6.818;2023-03-01T00:54:52;101781.88;;;1.29;57.62
72892;BME280;61032;50.782;6.818;2023-03-01T00:55:52;101778.69;;;1.32;57.40
72892;BME280;61032;50.782;6.818;2023-03-01T00:56:53;101781.50;;;1.26;57.20
72892;BME280;61032;50.782;6.818;2023-03-01T00:57:53;101779.97;;;1.30;56.95
72892;BME280;61032;50.782;6.818;2023-03-01T00:58:53;101781.03;;;1.29;57.60
72892;BME280;61032;50.782;6.818;2023-03-01T00:59:53;101792.69;;;1.29;57.37
72892;BME280;61032;50.782;6.818;2023-03-01T01:00:54;101789.06;;;1.24;56.74
72892;BME280;61032;50.782;6.818;2023-03-01T01:01:54;101783.41;;;1.25;56.96
72892;BME280;61032;50.782;6.818;2023-03-01T01:02:54;101780.44;;;1.27;56.96
72892;BME280;61032;50.782;6.818;2023-03-01T01:03:57;101779.75;;;1.31;56.74
72892;BME280;61032;50.782;6.818;2023-03-01T01:04:58;101776.09;;;1.26;56.87
72892;BME280;61032;50.782;6.818;2023-03-01T01:05:59;101787.06;;;1.19;57.05
72892;BME280;61032;50.782;6.818;2023-03-01T01:06:59;101780.25;;;1.17;57.81
72892;BME280;61032;50.782;6.818;2023-03-01T01:07:59;101784.47;;;1.24;57.18
72892;BME280;61032;50.782;6.818;2023-03-01T01:09:00;101786.09;;;1.25;56.72
72892;BME280;61032;50.782;6.818;2023-03-01T01:10:00;101777.41;;;1.35;57.41
72892;BME280;61032;50.782;6.818;2023-03-01T01:11:01;101779.41;;;1.40;56.95
72892;BME280;61032;50.782;6.818;2023-03-01T01:12:01;101776.69;;;1.40;57.03
72892;BME280;61032;50.782;6.818;2023-03-01T01:13:01;101776.56;;;1.34;56.50
72892;BME280;61032;50.782;6.818;2023-03-01T01:14:02;101776.81;;;1.33;56.36
72892;BME280;61032;50.782;6.818;2023-03-01T01:15:03;101766.91;;;1.38;56.60
72892;BME280;61032;50.782;6.818;2023-03-01T01:16:03;101776.22;;;1.43;56.40
72892;BME280;61032;50.782;6.818;2023-03-01T01:17:04;101771.75;;;1.36;56.67
72892;BME280;61032;50.782;6.818;2023-03-01T01:18:04;101772.56;;;1.25;57.11
72892;BME280;61032;50.782;6.818;2023-03-01T01:19:05;101774.22;;;1.26;56.73
72892;BME280;61032;50.782;6.818;2023-03-01T01:20:06;101766.69;;;1.28;56.51
72892;BME280;61032;50.782;6.818;2023-03-01T01:21:08;101766.69;;;1.28;56.25
72892;BME280;61032;50.782;6.818;2023-03-01T01:22:09;101763.97;;;1.28;56.75
72892;BME280;61032;50.782;6.818;2023-03-01T01:23:10;101759.16;;;1.19;57.57
72892;BME280;61032;50.782;6.818;2023-03-01T01:24:11;101756.31;;;1.25;56.75
72892;BME280;61032;50.782;6.818;2023-03-01T01:25:12;101755.38;;;1.31;56.78
72892;BME280;61032;50.782;6.818;2023-03-01T01:26:27;101756.56;;;1.24;57.00
72892;BME280;61032;50.782;6.818;2023-03-01T01:27:29;101757.28;;;1.19;56.93
72892;BME280;61032;50.782;6.818;2023-03-01T01:28:30;101758.56;;;1.17;57.34
72892;BME280;61032;50.782;6.818;2023-03-01T01:29:30;101760.94;;;1.13;57.65
72892;BME280;61032;50.782;6.818;2023-03-01T01:30:30;101758.47;;;1.23;56.39
72892;BME280;61032;50.782;6.818;2023-03-01T01:31:32;101750.91;;;1.25;57.39
72892;BME280;61032;50.782;6.818;2023-03-01T01:32:32;101751.72;;;1.26;57.50
72892;BME280;61032;50.782;6.818;2023-03-01T01:33:33;101751.50;;;1.27;56.55
72892;BME280;61032;50.782;6.818;2023-03-01T01:34:33;101743.88;;;1.24;57.05
72892;BME280;61032;50.782;6.818;2023-03-01T01:35:34;101749.28;;;1.24;57.25
72892;BME280;61032;50.782;6.818;2023-03-01T01:36:34;101743.34;;;1.27;57.23
72892;BME280;61032;50.782;6.818;2023-03-01T01:37:35;101738.78;;;1.28;57.13
72892;BME280;61032;50.782;6.818;2023-03-01T01:38:36;101738.06;;;1.32;56.79
72892;BME280;61032;50.782;6.818;2023-03-01T01:39:37;101737.94;;;1.39;56.74
72892;BME280;61032;50.782;6.818;2023-03-01T01:40:44;101733.13;;;1.41;56.46
72892;BME280;61032;50.782;6.818;2023-03-01T01:41:45;101730.41;;;1.41;57.00
72892;BME280;61032;50.782;6.818;2023-03-01T01:42:45;101737.72;;;1.41;56.74
72892;BME280;61032;50.782;6.818;2023-03-01T01:43:48;101728.03;;;1.45;56.48
72892;BME280;61032;50.782;6.818;2023-03-01T01:45:24;101736.06;;;1.40;56.82
72892;BME280;61032;50.782;6.818;2023-03-01T01:46:30;101738.19;;;1.37;56.93
72892;BME280;61032;50.782;6.818;2023-03-01T01:47:31;101730.84;;;1.50;56.92
72892;BME280;61032;50.782;6.818;2023-03-01T01:48:42;101735.34;;;1.44;56.06
72892;BME280;61032;50.782;6.818;2023-03-01T01:50:43;101739.47;;;1.35;56.69
72892;BME280;61032;50.782;6.818;2023-03-01T01:51:46;101734.53;;;1.32;56.66
72892;BME280;61032;50.782;6.818;2023-03-01T01:52:50;101727.47;;;1.31;56.52
72892;BME280;61032;50.782;6.818;2023-03-01T01:53:56;101723.22;;;1.35;56.82
72892;BME280;61032;50.782;6.818;2023-03-01T01:56:31;101720.28;;;1.36;57.03
72892;BME280;61032;50.782;6.818;2023-03-01T01:57:37;101728.88;;;1.33;56.98
72892;BME280;61032;50.782;6.818;2023-03-01T01:58:39;101728.06;;;1.33;56.44
72892;BME280;61032;50.782;6.818;2023-03-01T01:59:43;101725.94;;;1.35;57.12
72892;BME280;61032;50.782;6.818;2023-03-01T02:00:46;101724.06;;;1.35;56.89
72892;BME280;61032;50.782;6.818;2023-03-01T02:01:47;101721.34;;;1.35;57.02
72892;BME280;61032;50.782;6.818;2023-03-01T02:02:50;101724.88;;;1.36;56.62
72892;BME280;61032;50.782;6.818;2023-03-01T02:03:54;101725.00;;;1.29;57.10
72892;BME280;61032;50.782;6.818;2023-03-01T02:05:03;101727.69;;;1.29;57.26
72892;BME280;61032;50.782;6.818;2023-03-01T02:06:15;101728.31;;;1.20;57.69
72892;BME280;61032;50.782;6.818;2023-03-01T02:07:19;101722.66;;;1.21;57.03
72892;BME280;61032;50.782;6.818;2023-03-01T02:08:24;101724.31;;;1.22;57.98
72892;BME280;61032;50.782;6.818;2023-03-01T02:09:26;101721.69;;;1.27;57.11
72892;BME280;61032;50.782;6.818;2023-03-01T02:10:28;101725.00;;;1.29;56.93
72892;BME280;61032;50.782;6.818;2023-03-01T02:11:31;101720.63;;;1.28;57.37
72892;BME280;61032;50.782;6.818;2023-03-01T02:12:32;101729.72;;;1.22;57.60
72892;BME280;61032;50.782;6.818;2023-03-01T02:13:34;101723.00;;;1.25;56.78
72892;BME280;61032;50.782;6.818;2023-03-01T02:14:35;101719.97;;;1.21;57.25
72892;BME280;61032;50.782;6.818;2023-03-01T02:15:37;101717.34;;;1.26;57.10
72892;BME280;61032;50.782;6.818;2023-03-01T02:16:37;101723.81;;;1.25;57.06
72892;BME280;61032;50.782;6.818;2023-03-01T02:17:38;101718.31;;;1.20;57.16
72892;BME280;61032;50.782;6.818;2023-03-01T02:18:40;101705.59;;;1.21;57.92
72892;BME280;61032;50.782;6.818;2023-03-01T02:19:56;101714.31;;;1.23;57.36
72892;BME280;61032;50.782;6.818;2023-03-01T02:21:58;101706.66;;;1.20;57.77
72892;BME280;61032;50.782;6.818;2023-03-01T02:22:38;101710.66;;;1.17;57.07
72892;BME280;61032;50.782;6.818;2023-03-01T02:23:39;101712.44;;;1.23;57.58
72892;BME280;61032;50.782;6.818;2023-03-01T02:26:11;101718.06;;;1.22;58.03
72892;BME280;61032;50.782;6.818;2023-03-01T02:27:15;101709.44;;;1.25;57.90
72892;BME280;61032;50.782;6.818;2023-03-01T02:28:33;101711.00;;;1.21;57.54
72892;BME280;61032;50.782;6.818;2023-03-01T02:29:34;101710.78;;;1.22;58.02
72892;BME280;61032;50.782;6.818;2023-03-01T02:30:34;101711.13;;;1.14;58.02
72892;BME280;61032;50.782;6.818;2023-03-01T02:31:35;101714.91;;;1.13;58.31
72892;BME280;61032;50.782;6.818;2023-03-01T02:32:42;101713.59;;;1.16;58.04
72892;BME280;61032;50.782;6.818;2023-03-01T02:33:43;101718.78;;;1.17;57.79
72892;BME280;61032;50.782;6.818;2023-03-01T02:34:44;101711.84;;;1.21;57.88
72892;BME280;61032;50.782;6.818;2023-03-01T02:35:44;101713.56;;;1.27;58.18
72892;BME280;61032;50.782;6.818;2023-03-01T02:36:55;101710.19;;;1.20;57.44
72892;BME280;61032;50.782;6.818;2023-03-01T02:37:57;101700.31;;;1.14;57.96
72892;BME280;61032;50.782;6.818;2023-03-01T02:39:03;101704.56;;;0.98;58.29
72892;BME280;61032;50.782;6.818;2023-03-01T02:40:09;101698.09;;;0.88;58.69
72892;BME280;61032;50.782;6.818;2023-03-01T02:41:13;101696.44;;;0.87;58.99
72892;BME280;61032;50.782;6.818;2023-03-01T02:42:18;101699.13;;;0.87;59.44
72892;BME280;61032;50.782;6.818;2023-03-01T02:43:23;101701.25;;;0.85;59.33
72892;BME280;61032;50.782;6.818;2023-03-01T02:44:26;101701.84;;;0.75;59.80
72892;BME280;61032;50.782;6.818;2023-03-01T02:45:27;101704.22;;;0.72;61.18
72892;BME280;61032;50.782;6.818;2023-03-01T02:46:27;101702.31;;;0.72;60.52
72892;BME280;61032;50.782;6.818;2023-03-01T02:47:27;101699.38;;;0.74;61.00
72892;BME280;61032;50.782;6.818;2023-03-01T02:48:28;101700.09;;;0.69;60.63
72892;BME280;61032;50.782;6.818;2023-03-01T02:49:30;101705.03;;;0.60;61.38
72892;BME280;61032;50.782;6.818;2023-03-01T02:53:16;101704.31;;;0.53;62.06
72892;BME280;61032;50.782;6.818;2023-03-01T02:54:40;101709.97;;;0.52;61.85
72892;BME280;61032;50.782;6.818;2023-03-01T02:55:43;101710.19;;;0.50;62.12
72892;BME280;61032;50.782;6.818;2023-03-01T02:56:44;101711.47;;;0.36;62.00
72892;BME280;61032;50.782;6.818;2023-03-01T02:57:48;101709.47;;;0.31;61.32
72892;BME280;61032;50.782;6.818;2023-03-01T02:58:52;101702.84;;;0.16;62.51
72892;BME280;61032;50.782;6.818;2023-03-01T02:59:54;101700.81;;;0.11;62.43
72892;BME280;61032;50.782;6.818;2023-03-01T03:00:55;101702.78;;;0.04;63.41
72892;BME280;61032;50.782;6.818;2023-03-01T03:01:56;101709.03;;;0.05;62.83
72892;BME280;61032;50.782;6.818;2023-03-01T03:02:56;101706.91;;;-0.05;63.31
72892;BME280;61032;50.782;6.818;2023-03-01T03:03:57;101707.25;;;-0.02;62.65
72892;BME280;61032;50.782;6.818;2023-03-01T03:04:57;101706.53;;;-0.09;63.18
72892;BME280;61032;50.782;6.818;2023-03-01T03:05:57;101702.19;;;-0.10;63.39
72892;BME280;61032;50.782;6.818;2023-03-01T03:06:58;101694.66;;;-0.08;62.54
72892;BME280;61032;50.782;6.818;2023-03-01T03:07:59;101696.84;;;-0.16;62.78
72892;BME280;61032;50.782;6.818;2023-03-01T03:09:00;101701.31;;;-0.22;63.49
72892;BME280;61032;50.782;6.818;2023-03-01T03:10:03;101697.19;;;-0.24;63.25
72892;BME280;61032;50.782;6.818;2023-03-01T03:11:03;101694.94;;;-0.27;63.11
72892;BME280;61032;50.782;6.818;2023-03-01T03:12:04;101696.38;;;-0.25;63.65
72892;BME280;61032;50.782;6.818;2023-03-01T03:13:10;101699.19;;;-0.20;63.03
72892;BME280;61032;50.782;6.818;2023-03-01T03:14:13;101695.78;;;-0.27;63.74
72892;BME280;61032;50.782;6.818;2023-03-01T03:15:13;101694.97;;;-0.46;63.95
72892;BME280;61032;50.782;6.818;2023-03-01T03:16:14;101694.22;;;-0.53;64.26
72892;BME280;61032;50.782;6.818;2023-03-01T03:17:14;101697.91;;;-0.47;63.98
72892;BME280;61032;50.782;6.818;2023-03-01T03:18:16;101699.22;;;-0.38;64.30
72892;BME280;61032;50.782;6.818;2023-03-01T03:19:18;101698.06;;;-0.42;64.04
72892;BME280;61032;50.782;6.818;2023-03-01T03:20:22;101691.09;;;-0.50;63.91
72892;BME280;61032;50.782;6.818;2023-03-01T03:21:23;101689.88;;;-0.54;64.70
72892;BME280;61032;50.782;6.818;2023-03-01T03:22:23;101684.00;;;-0.62;64.36
72892;BME280;61032;50.782;6.818;2023-03-01T03:23:24;101685.69;;;-0.50;64.35
72892;BME280;61032;50.782;6.818;2023-03-01T03:24:25;101686.53;;;-0.38;63.80
72892;BME280;61032;50.782;6.818;2023-03-01T03:25:26;101688.25;;;-0.25;63.83
72892;BME280;61032;50.782;6.818;2023-03-01T03:26:27;101697.91;;;-0.17;63.69
72892;BME280;61032;50.782;6.818;2023-03-01T03:27:28;101683.91;;;-0.26;64.05
72892;BME280;61032;50.782;6.818;2023-03-01T03:28:28;101690.06;;;-0.37;64.62
72892;BME280;61032;50.782;6.818;2023-03-01T03:29:29;101691.84;;;-0.43;63.99
72892;BME280;61032;50.782;6.818;2023-03-01T03:30:31;101685.72;;;-0.38;64.24
72892;BME280;61032;50.782;6.818;2023-03-01T03:31:31;101691.22;;;-0.45;63.92
72892;BME280;61032;50.782;6.818;2023-03-01T03:32:31;101684.44;;;-0.36;64.14
72892;BME280;61032;50.782;6.818;2023-03-01T03:33:32;101684.38;;;-0.29;63.42
72892;BME280;61032;50.782;6.818;2023-03-01T03:34:32;101678.13;;;-0.29;63.69
72892;BME280;61032;50.782;6.818;2023-03-01T03:35:38;101677.41;;;-0.37;64.32
72892;BME280;61032;50.782;6.818;2023-03-01T03:36:38;101673.41;;;-0.34;64.40
72892;BME280;61032;50.782;6.818;2023-03-01T03:37:40;101667.09;;;-0.28;63.70
72892;BME280;61032;50.782;6.818;2023-03-01T03:38:59;101664.41;;;-0.28;63.54
72892;BME280;61032;50.782;6.818;2023-03-01T03:40:00;101663.59;;;-0.28;63.76
72892;BME280;61032;50.782;6.818;2023-03-01T03:41:06;101673.47;;;-0.22;63.47
72892;BME280;61032;50.782;6.818;2023-03-01T03:42:07;101676.84;;;-0.27;63.91
72892;BME280;61032;50.782;6.818;2023-03-01T03:43:14;101672.06;;;-0.25;63.51
72892;BME280;61032;50.782;6.818;2023-03-01T03:44:14;101673.56;;;-0.29;63.46
72892;BME280;61032;50.782;6.818;2023-03-01T03:45:16;101675.28;;;-0.35;63.78
72892;BME280;61032;50.782;6.818;2023-03-01T03:46:16;101672.59;;;-0.35;63.57
72892;BME280;61032;50.782;6.818;2023-03-01T03:47:17;101671.16;;;-0.37;62.92
72892;BME280;61032;50.782;6.818;2023-03-01T03:48:18;101676.22;;;-0.59;63.60
72892;BME280;61032;50.782;6.818;2023-03-01T03:49:18;101668.25;;;-0.65;63.98
72892;BME280;61032;50.782;6.818;2023-03-01T03:50:18;101673.47;;;-0.52;63.35
72892;BME280;61032;50.782;6.818;2023-03-01T03:51:19;101671.97;;;-0.48;63.99
72892;BME280;61032;50.782;6.818;2023-03-01T03:52:19;101670.91;;;-0.47;63.86
72892;BME280;61032;50.782;6.818;2023-03-01T03:53:21;101670.44;;;-0.44;63.42
72892;BME280;61032;50.782;6.818;2023-03-01T03:54:21;101666.09;;;-0.45;64.39
72892;BME280;61032;50.782;6.818;2023-03-01T03:55:22;101666.34;;;-0.47;63.98
72892;BME280;61032;50.782;6.818;2023-03-01T03:56:22;101668.34;;;-0.42;63.90
72892;BME280;61032;50.782;6.818;2023-03-01T03:57:25;101667.38;;;-0.48;63.61
72892;BME280;61032;50.782;6.818;2023-03-01T03:58:26;101666.41;;;-0.53;64.15
72892;BME280;61032;50.782;6.818;2023-03-01T03:59:26;101664.75;;;-0.54;64.19
72892;BME280;61032;50.782;6.818;2023-03-01T04:00:27;101666.19;;;-0.52;64.85
72892;BME280;61032;50.782;6.818;2023-03-01T04:01:28;101668.34;;;-0.60;64.27
72892;BME280;61032;50.782;6.818;2023-03-01T04:02:28;101664.50;;;-0.64;65.03
72892;BME280;61032;50.782;6.818;2023-03-01T04:03:29;101666.25;;;-0.58;64.17
72892;BME280;61032;50.782;6.818;2023-03-01T04:04:32;101669.34;;;-0.55;63.97
72892;BME280;61032;50.782;6.818;2023-03-01T04:05:32;101673.31;;;-0.57;63.64
72892;BME280;61032;50.782;6.818;2023-03-01T04:06:33;101668.25;;;-0.65;64.40
72892;BME280;61032;50.782;6.818;2023-03-01T04:07:36;101662.38;;;-0.62;63.98
72892;BME280;61032;50.782;6.818;2023-03-01T04:08:37;101658.34;;;-0.72;64.45
72892;BME280;61032;50.782;6.818;2023-03-01T04:09:38;101660.59;;;-0.68;63.90
72892;BME280;61032;50.782;6.818;2023-03-01T04:10:41;101663.75;;;-0.72;64.22
72892;BME280;61032;50.782;6.818;2023-03-01T04:11:41;101650.09;;;-0.77;64.89
72892;BME280;61032;50.782;6.818;2023-03-01T04:12:42;101654.13;;;-0.67;64.76
72892;BME280;61032;50.782;6.818;2023-03-01T04:13:45;101650.81;;;-0.51;64.06
72892;BME280;61032;50.782;6.818;2023-03-01T04:14:45;101646.59;;;-0.47;63.84
72892;BME280;61032;50.782;6.818;2023-03-01T04:15:48;101646.38;;;-0.46;63.42
72892;BME280;61032;50.782;6.818;2023-03-01T04:16:49;101643.91;;;-0.47;63.64
72892;BME280;61032;50.782;6.818;2023-03-01T04:17:51;101641.06;;;-0.52;63.66
72892;BME280;61032;50.782;6.818;2023-03-01T04:18:52;101646.59;;;-0.47;63.25
72892;BME280;61032;50.782;6.818;2023-03-01T04:19:56;101640.59;;;-0.49;63.77
72892;BME280;61032;50.782;6.818;2023-03-01T04:20:56;101642.25;;;-0.48;63.83
72892;BME280;61032;50.782;6.818;2023-03-01T04:21:57;101652.44;;;-0.50;63.90
72892;BME280;61032;50.782;6.818;2023-03-01T04:23:02;101647.72;;;-0.55;63.43
72892;BME280;61032;50.782;6.818;2023-03-01T04:24:20;101640.94;;;-0.76;64.44
72892;BME280;61032;50.782;6.818;2023-03-01T04:25:23;101639.25;;;-0.88;64.89
72892;BME280;61032;50.782;6.818;2023-03-01T04:26:23;101646.13;;;-0.92;65.28
72892;BME280;61032;50.782;6.818;2023-03-01T04:27:24;101640.66;;;-0.86;64.78
72892;BME280;61032;50.782;6.818;2023-03-01T04:29:26;101648.78;;;-1.04;65.46
72892;BME280;61032;50.782;6.818;2023-03-01T04:30:27;101652.66;;;-1.00;65.89
72892;BME280;61032;50.782;6.818;2023-03-01T04:31:27;101641.84;;;-1.00;65.63
72892;BME280;61032;50.782;6.818;2023-03-01T04:32:28;101649.06;;;-0.94;65.21
72892;BME280;61032;50.782;6.818;2023-03-01T04:33:28;101651.75;;;-0.94;65.11
72892;BME280;61032;50.782;6.818;2023-03-01T04:34:29;101644.72;;;-0.95;65.42
72892;BME280;61032;50.782;6.818;2023-03-01T04:35:30;101635.84;;;-1.02;66.30
72892;BME280;61032;50.782;6.818;2023-03-01T04:36:31;101648.00;;;-0.93;65.68
72892;BME280;61032;50.782;6.818;2023-03-01T04:37:31;101657.00;;;-0.99;64.44
72892;BME280;61032;50.782;6.818;2023-03-01T04:38:32;101649.22;;;-1.07;65.36
72892;BME280;61032;50.782;6.818;2023-03-01T04:39:32;101652.19;;;-1.15;65.61
72892;BME280;61032;50.782;6.818;2023-03-01T04:40:32;101655.06;;;-1.10;65.47
72892;BME280;61032;50.782;6.818;2023-03-01T04:41:33;101656.09;;;-1.11;65.44
72892;BME280;61032;50.782;6.818;2023-03-01T04:42:33;101654.28;;;-1.17;65.47
72892;BME280;61032;50.782;6.818;2023-03-01T04:43:33;101644.47;;;-1.30;66.27
72892;BME280;61032;50.782;6.818;2023-03-01T04:44:34;101653.53;;;-1.24;66.00
72892;BME280;61032;50.782;6.818;2023-03-01T04:45:34;101647.03;;;-1.17;66.10
72892;BME280;61032;50.782;6.818;2023-03-01T04:46:35;101651.97;;;-1.14;65.81
72892;BME280;61032;50.782;6.818;2023-03-01T04:47:36;101648.00;;;-1.11;65.35
72892;BME280;61032;50.782;6.818;2023-03-01T04:48:39;101649.22;;;-1.07;65.26
72892;BME280;61032;50.782;6.818;2023-03-01T04:49:40;101654.84;;;-1.09;64.89
72892;BME280;61032;50.782;6.818;2023-03-01T04:50:40;101651.00;;;-1.19;65.41
72892;BME280;61032;50.782;6.818;2023-03-01T04:51:40;101646.81;;;-1.15;65.20
72892;BME280;61032;50.782;6.818;2023-03-01T04:52:41;101648.06;;;-0.99;65.09
72892;BME280;61032;50.782;6.818;2023-03-01T04:53:42;101637.19;;;-0.75;64.08
72892;BME280;61032;50.782;6.818;2023-03-01T04:54:42;101645.44;;;-0.70;64.37
72892;BME280;61032;50.782;6.818;2023-03-01T04:55:43;101643.03;;;-0.78;64.53
72892;BME280;61032;50.782;6.818;2023-03-01T04:56:43;101635.38;;;-0.81;64.23
72892;BME280;61032;50.782;6.818;2023-03-01T04:57:44;101637.75;;;-0.84;64.47
72892;BME280;61032;50.782;6.818;2023-03-01T04:58:44;101631.81;;;-0.93;64.41
72892;BME280;61032;50.782;6.818;2023-03-01T04:59:45;101631.97;;;-0.88;64.84
72892;BME280;61032;50.782;6.818;2023-03-01T05:00:45;101631.75;;;-0.86;65.02
72892;BME280;61032;50.782;6.818;2023-03-01T05:01:46;101630.00;;;-0.81;64.74
72892;BME280;61032;50.782;6.818;2023-03-01T05:02:54;101628.94;;;-0.80;64.74
72892;BME280;61032;50.782;6.818;2023-03-01T05:03:55;101637.63;;;-0.78;64.31
72892;BME280;61032;50.782;6.818;2023-03-01T05:04:55;101630.47;;;-0.84;63.73
72892;BME280;61032;50.782;6.818;2023-03-01T05:05:58;101632.72;;;-0.99;64.69
72892;BME280;61032;50.782;6.818;2023-03-01T05:06:59;101629.28;;;-1.06;65.50
72892;BME280;61032;50.782;6.818;2023-03-01T05:08:02;101633.38;;;-1.04;65.42
72892;BME280;61032;50.782;6.818;2023-03-01T05:09:04;101625.81;;;-0.95;64.90
72892;BME280;61032;50.782;6.818;2023-03-01T05:10:05;101626.03;;;-0.96;64.57
72892;BME280;61032;50.782;6.818;2023-03-01T05:11:06;101624.16;;;-0.96;64.56
72892;BME280;61032;50.782;6.818;2023-03-01T05:12:08;101630.84;;;-1.17;65.13
72892;BME280;61032;50.782;6.818;2023-03-01T05:13:09;101626.13;;;-1.21;65.57
72892;BME280;61032;50.782;6.818;2023-03-01T05:14:10;101638.66;;;-1.27;65.30
72892;BME280;61032;50.782;6.818;2023-03-01T05:15:11;101644.31;;;-1.35;66.18
72892;BME280;61032;50.782;6.818;2023-03-01T05:16:11;101650.53;;;-1.34;66.42
72892;BME280;61032;50.782;6.818;2023-03-01T05:17:11;101644.47;;;-1.30;65.97
72892;BME280;61032;50.782;6.818;2023-03-01T05:18:12;101640.50;;;-1.27;65.98
72892;BME280;61032;50.782;6.818;2023-03-01T05:19:12;101649.28;;;-1.14;65.40
72892;BME280;61032;50.782;6.818;2023-03-01T05:20:15;101647.78;;;-1.10;65.52
72892;BME280;61032;50.782;6.818;2023-03-01T05:21:16;101647.19;;;-1.12;65.23
72892;BME280;61032;50.782;6.818;2023-03-01T05:22:16;101641.94;;;-1.07;65.07
72892;BME280;61032;50.782;6.818;2023-03-01T05:23:17;101637.22;;;-1.11;65.18
72892;BME280;61032;50.782;6.818;2023-03-01T05:24:18;101641.41;;;-1.15;64.79
72892;BME280;61032;50.782;6.818;2023-03-01T05:25:18;101643.34;;;-1.22;65.13
72892;BME280;61032;50.782;6.818;2023-03-01T05:26:20;101645.91;;;-1.27;65.60
72892;BME280;61032;50.782;6.818;2023-03-01T05:27:21;101644.38;;;-1.23;65.14
72892;BME280;61032;50.782;6.818;2023-03-01T05:28:22;101639.00;;;-1.23;65.84
72892;BME280;61032;50.782;6.818;2023-03-01T05:29:24;101639.25;;;-1.25;65.41
72892;BME280;61032;50.782;6.818;2023-03-01T05:30:27;101641.84;;;-1.18;65.04
72892;BME280;61032;50.782;6.818;2023-03-01T05:31:28;101639.91;;;-1.29;65.48
72892;BME280;61032;50.782;6.818;2023-03-01T05:32:28;101645.38;;;-1.36;65.61
72892;BME280;61032;50.782;6.818;2023-03-01T05:33:32;101636.44;;;-1.36;66.18
72892;BME280;61032;50.782;6.818;2023-03-01T05:34:35;101643.66;;;-1.30;66.07